Time;durP1;ratioP1;P1;durP2;ratioP2;P2;SDS_P1;SDS_P2;PMS_P1;PMS_P2;Temp;Humidity;BMP_temperature;BMP_pressure;BME280_temperature;BME280_humidity;BME280_pressure;Samples;Min_cycle;Max_cycle;Signal;HPM_P1;HPM_P2
2021/09/28 00:04:14;;;;;;;6.05;2.80;;;22.10;55.70;;;;;;31257746;28;20050;-55
2021/09/28 00:19:16;;;;;;;6.30;2.88;;;22.00;55.50;;;;;;31250344;28;20042;-55
2021/09/28 00:34:19;;;;;;;5.93;3.03;;;21.90;55.50;;;;;;31248488;28;20073;-49
2021/09/28 00:49:21;;;;;;;5.45;2.60;;;22.00;55.20;;;;;;31246868;28;20088;-51
2021/09/28 01:04:23;;;;;;;7.28;2.85;;;22.00;55.10;;;;;;31246581;28;20088;-49
2021/09/28 01:19:25;;;;;;;8.80;3.20;;;21.90;55.20;;;;;;31254762;28;20128;-52
2021/09/28 01:34:27;;;;;;;4.30;2.35;;;21.90;54.80;;;;;;31250660;28;20064;-55
2021/09/28 01:49:29;;;;;;;7.03;2.88;;;21.90;54.50;;;;;;31261938;28;20118;-46
2021/09/28 02:04:31;;;;;;;7.03;2.78;;;21.90;54.20;;;;;;31164746;28;20093;-47
2021/09/28 02:19:33;;;;;;;7.15;3.78;;;21.90;54.00;;;;;;31234665;28;20109;-47
2021/09/28 02:34:35;;;;;;;10.13;3.63;;;21.90;54.00;;;;;;31270995;28;20084;-55
2021/09/28 02:49:37;;;;;;;7.78;3.28;;;21.90;53.90;;;;;;31270684;28;20072;-48
2021/09/28 03:04:39;;;;;;;7.88;3.08;;;21.90;53.70;;;;;;31252283;28;20097;-49
2021/09/28 03:19:42;;;;;;;7.07;2.78;;;21.90;53.50;;;;;;31140255;28;20066;-48
2021/09/28 03:34:44;;;;;;;3.33;2.17;;;21.90;53.30;;;;;;31142908;28;20046;-55
2021/09/28 03:49:46;;;;;;;7.55;2.50;;;21.90;53.20;;;;;;31242579;28;20052;-46
2021/09/28 04:04:48;;;;;;;5.50;2.00;;;21.90;53.10;;;;;;31253944;28;20053;-44
2021/09/28 04:19:50;;;;;;;14.50;3.50;;;21.80;53.10;;;;;;31211293;28;20070;-47
2021/09/28 04:34:52;;;;;;;17.80;6.07;;;21.60;55.90;;;;;;31189960;28;20055;-48
2021/09/28 04:49:54;;;;;;;21.48;5.70;;;21.60;56.30;;;;;;31194163;28;20510;-58
2021/09/28 05:04:56;;;;;;;27.98;5.53;;;21.50;56.10;;;;;;31392044;28;20128;-56
2021/09/28 05:19:58;;;;;;;20.67;4.30;;;21.50;56.30;;;;;;31388678;28;20101;-55
2021/09/28 05:35:00;;;;;;;35.35;4.60;;;21.50;56.70;;;;;;31403018;28;20049;-55
2021/09/28 05:50:04;;;;;;;13.77;4.07;;;21.50;57.00;;;;;;31400862;28;20058;-55
2021/09/28 06:05:06;;;;;;;11.82;4.25;;;21.40;56.60;;;;;;31399701;28;20101;-54
2021/09/28 06:20:10;;;;;;;8.80;3.22;;;21.40;55.70;;;;;;31397852;28;20079;-55
2021/09/28 06:35:12;;;;;;;11.85;3.97;;;21.40;56.90;;;;;;31313840;28;20064;-59
2021/09/28 06:50:14;;;;;;;13.70;4.25;;;21.20;55.70;;;;;;31268755;28;20070;-57
2021/09/28 07:05:17;;;;;;;15.25;5.40;;;21.20;56.30;;;;;;31260961;28;20066;-54
2021/09/28 07:20:21;;;;;;;9.35;5.15;;;21.00;56.30;;;;;;30901768;28;10000373;-54
2021/09/28 07:35:23;;;;;;;13.85;5.25;;;21.50;54.40;;;;;;31123760;28;20065;-58
2021/09/28 07:50:25;;;;;;;8.27;5.80;;;21.40;55.80;;;;;;31121136;28;20109;-58
2021/09/28 08:05:27;;;;;;;40.53;24.58;;;21.40;56.30;;;;;;31129692;28;20042;-48
2021/09/28 08:20:30;;;;;;;32.25;17.88;;;21.20;55.20;;;;;;31133388;28;20042;-44
2021/09/28 08:35:32;;;;;;;22.63;15.55;;;21.10;56.00;;;;;;31255069;28;20129;-45
2021/09/28 08:50:34;;;;;;;17.02;10.32;;;21.10;56.30;;;;;;31237997;28;20076;-53
2021/09/28 09:05:46;;;;;;;13.35;8.20;;;21.20;55.70;;;;;;31236828;28;20050;-49
2021/09/28 09:20:48;;;;;;;56.17;40.47;;;21.20;55.10;;;;;;31234468;28;20048;-51
2021/09/28 09:35:57;;;;;;;34.88;23.48;;;21.00;55.70;;;;;;31234452;28;20092;-58
2021/09/28 09:51:12;;;;;;;26.30;11.70;;;21.40;53.60;;;;;;31233176;28;20113;-54
2021/09/28 10:06:14;;;;;;;16.75;6.72;;;20.90;54.10;;;;;;31243469;28;20088;-56
2021/09/28 10:21:36;;;;;;;74.65;12.00;;;20.40;54.20;;;;;;31269182;28;20046;-56
2021/09/28 10:36:54;;;;;;;51.63;7.95;;;20.50;55.20;;;;;;31251648;28;20050;-56
2021/09/28 10:52:21;;;;;;;46.20;7.97;;;21.00;53.90;;;;;;31249656;28;20058;-51
2021/09/28 11:07:23;;;;;;;27.77;6.35;;;21.30;54.10;;;;;;31248635;28;20049;-52
2021/09/28 11:22:25;;;;;;;29.58;11.38;;;20.90;55.00;;;;;;31248174;28;20037;-49
2021/09/28 11:37:30;;;;;;;20.60;9.27;;;20.90;55.00;;;;;;31261567;28;20097;-57
2021/09/28 11:52:36;;;;;;;19.83;7.50;;;21.00;54.70;;;;;;31260233;28;20172;-57
2021/09/28 12:22:59;;;;;;;9.20;3.87;;;21.60;52.90;;;;;;31149695;28;20057;-56
2021/09/28 12:38:04;;;;;;;9.02;4.20;;;21.70;53.00;;;;;;31239487;28;20062;-57
2021/09/28 12:53:15;;;;;;;11.68;3.53;;;21.90;52.60;;;;;;31241961;28;20069;-56
2021/09/28 13:08:20;;;;;;;9.98;3.47;;;21.90;52.50;;;;;;31240102;28;20081;-57
2021/09/28 13:23:23;;;;;;;5.13;3.20;;;22.00;52.30;;;;;;31235908;28;20057;-47
2021/09/28 13:38:25;;;;;;;6.65;3.08;;;22.00;52.60;;;;;;31246417;28;20046;-55
2021/09/28 13:53:27;;;;;;;7.18;3.08;;;22.00;52.40;;;;;;31267469;28;20073;-55
2021/09/28 14:08:30;;;;;;;8.15;3.47;;;22.00;52.30;;;;;;31273325;28;20038;-56
2021/09/28 14:23:34;;;;;;;7.95;2.80;;;21.50;53.40;;;;;;31270246;28;20046;-48
2021/09/28 14:38:36;;;;;;;5.32;2.97;;;21.20;52.50;;;;;;31266403;28;20042;-54
2021/09/28 14:53:38;;;;;;;10.77;2.88;;;21.20;54.30;;;;;;31260040;28;20053;-48
2021/09/28 15:08:40;;;;;;;8.07;3.08;;;21.90;51.40;;;;;;31261667;28;20591;-55
2021/09/28 15:23:42;;;;;;;4.63;2.90;;;21.50;54.60;;;;;;31266568;28;20109;-55
2021/09/28 15:38:51;;;;;;;13.20;3.25;;;21.50;54.60;;;;;;31180523;28;20039;-45
2021/09/28 15:53:53;;;;;;;10.37;3.77;;;21.60;54.60;;;;;;31232084;28;20058;-45
2021/09/28 16:08:56;;;;;;;54.30;16.42;;;21.80;52.60;;;;;;31166603;28;20042;-53
2021/09/28 16:23:59;;;;;;;90.50;20.52;;;21.50;57.10;;;;;;31146274;28;20046;-46
2021/09/28 16:39:01;;;;;;;43.95;13.45;;;21.50;59.80;;;;;;31130205;28;20053;-48
2021/09/28 16:54:04;;;;;;;33.63;10.32;;;21.70;61.50;;;;;;31133833;28;20098;-53
2021/09/28 17:09:07;;;;;;;22.35;7.60;;;21.80;55.10;;;;;;31139287;28;20053;-44
2021/09/28 17:24:09;;;;;;;21.70;6.03;;;21.90;53.80;;;;;;31250208;28;20050;-50
2021/09/28 17:39:11;;;;;;;11.05;4.78;;;21.90;52.90;;;;;;31245327;28;20050;-56
2021/09/28 17:54:26;;;;;;;11.50;4.20;;;22.00;53.00;;;;;;31004059;28;20043;-46
2021/09/28 18:09:29;;;;;;;12.57;4.53;;;21.90;53.50;;;;;;30652337;28;10000207;-55
2021/09/28 18:24:33;;;;;;;8.18;4.00;;;21.90;54.70;;;;;;30993582;28;20106;-56
2021/09/28 18:39:47;;;;;;;8.90;3.55;;;21.90;56.30;;;;;;31017966;28;20081;-47
2021/09/28 18:54:54;;;;;;;8.40;3.67;;;21.80;56.60;;;;;;31256175;28;20044;-49
2021/09/28 19:09:56;;;;;;;7.53;3.85;;;21.80;54.30;;;;;;31262830;28;20045;-51
2021/09/28 19:24:58;;;;;;;8.60;3.58;;;21.90;54.50;;;;;;31247915;28;20048;-54
2021/09/28 19:40:10;;;;;;;187.43;126.72;;;21.90;53.70;;;;;;31253415;28;20073;-46
2021/09/28 20:40:59;;;;;;;32.63;22.83;;;22.00;52.40;;;;;;31251723;28;20074;-44
2021/09/28 20:56:02;;;;;;;27.25;16.10;;;22.00;52.10;;;;;;31253379;28;20071;-46
2021/09/28 21:11:06;;;;;;;20.30;14.40;;;22.00;52.00;;;;;;31249353;28;20065;-50
2021/09/28 21:26:09;;;;;;;17.40;11.90;;;22.00;51.90;;;;;;31245450;28;20097;-47
2021/09/28 21:41:11;;;;;;;11.60;8.73;;;22.00;51.70;;;;;;31246644;28;20088;-48
2021/09/28 21:56:13;;;;;;;9.18;6.95;;;21.90;52.10;;;;;;31252941;28;20102;-46
2021/09/28 22:11:16;;;;;;;11.05;6.82;;;22.00;52.00;;;;;;31273499;28;20072;-46
2021/09/28 22:26:37;;;;;;;9.63;5.93;;;21.90;51.80;;;;;;30924294;28;10000474;-44
2021/09/28 22:41:39;;;;;;;6.95;4.80;;;21.90;51.90;;;;;;31270924;28;20129;-50
2021/09/28 22:56:41;;;;;;;5.93;4.10;;;21.90;51.70;;;;;;31271162;28;20190;-50
2021/09/28 23:11:44;;;;;;;5.10;3.55;;;21.90;52.00;;;;;;31268412;28;20094;-49
2021/09/28 23:26:46;;;;;;;4.88;3.60;;;21.90;52.00;;;;;;31267704;28;20064;-51
2021/09/28 23:41:48;;;;;;;5.53;3.47;;;21.90;51.90;;;;;;31265210;28;20141;-52
2021/09/28 23:56:50;;;;;;;6.15;3.78;;;21.90;51.70;;;;;;31263752;28;20053;-48
